sensor_id;sensor_type;location;lat;lon;timestamp;P1;durP1;ratioP1;P2;durP2;ratioP2
26486;SDS011;14425;56.136;40.360;2022-09-17T00:00:06;6.32;;;5.20;;
26486;SDS011;14425;56.136;40.360;2022-09-17T00:02:33;7.47;;;4.85;;
26486;SDS011;14425;56.136;40.360;2022-09-17T00:04:58;8.20;;;4.63;;
26486;SDS011;14425;56.136;40.360;2022-09-17T00:07:23;6.95;;;4.82;;
26486;SDS011;14425;56.136;40.360;2022-09-17T00:09:52;6.68;;;4.80;;
26486;SDS011;14425;56.136;40.360;2022-09-17T00:12:18;5.40;;;4.78;;
26486;SDS011;14425;56.136;40.360;2022-09-17T00:14:43;5.22;;;3.78;;
26486;SDS011;14425;56.136;40.360;2022-09-17T00:17:09;7.45;;;5.05;;
26486;SDS011;14425;56.136;40.360;2022-09-17T00:19:34;6.53;;;5.30;;
26486;SDS011;14425;56.136;40.360;2022-09-17T00:21:59;6.87;;;4.93;;
26486;SDS011;14425;56.136;40.360;2022-09-17T00:24:25;7.22;;;4.15;;
26486;SDS011;14425;56.136;40.360;2022-09-17T00:26:50;8.48;;;6.45;;
26486;SDS011;14425;56.136;40.360;2022-09-17T00:29:16;7.28;;;5.00;;
26486;SDS011;14425;56.136;40.360;2022-09-17T00:31:41;6.07;;;5.25;;
26486;SDS011;14425;56.136;40.360;2022-09-17T00:34:09;4.75;;;3.92;;
26486;SDS011;14425;56.136;40.360;2022-09-17T00:36:37;6.30;;;4.38;;
26486;SDS011;14425;56.136;40.360;2022-09-17T00:39:03;4.65;;;3.60;;
26486;SDS011;14425;56.136;40.360;2022-09-17T00:41:29;5.78;;;3.65;;
26486;SDS011;14425;56.136;40.360;2022-09-17T00:43:56;6.43;;;4.85;;
26486;SDS011;14425;56.136;40.360;2022-09-17T00:46:35;6.82;;;5.32;;
26486;SDS011;14425;56.136;40.360;2022-09-17T00:49:20;9.57;;;7.20;;
26486;SDS011;14425;56.136;40.360;2022-09-17T00:51:48;6.45;;;4.47;;
26486;SDS011;14425;56.136;40.360;2022-09-17T00:54:17;5.00;;;4.47;;
26486;SDS011;14425;56.136;40.360;2022-09-17T00:56:43;8.45;;;5.70;;
26486;SDS011;14425;56.136;40.360;2022-09-17T00:59:08;6.55;;;4.60;;
26486;SDS011;14425;56.136;40.360;2022-09-17T01:01:34;5.13;;;3.53;;
26486;SDS011;14425;56.136;40.360;2022-09-17T01:04:00;6.72;;;4.63;;
26486;SDS011;14425;56.136;40.360;2022-09-17T01:11:54;7.30;;;5.68;;
26486;SDS011;14425;56.136;40.360;2022-09-17T01:17:18;4.68;;;3.75;;
26486;SDS011;14425;56.136;40.360;2022-09-17T01:22:12;8.40;;;5.28;;
26486;SDS011;14425;56.136;40.360;2022-09-17T01:32:25;6.40;;;5.28;;
26486;SDS011;14425;56.136;40.360;2022-09-17T01:35:04;5.65;;;4.20;;
26486;SDS011;14425;56.136;40.360;2022-09-17T01:37:34;5.93;;;4.30;;
26486;SDS011;14425;56.136;40.360;2022-09-17T01:42:28;7.65;;;5.53;;
26486;SDS011;14425;56.136;40.360;2022-09-17T01:45:13;7.82;;;6.50;;
26486;SDS011;14425;56.136;40.360;2022-09-17T01:50:52;4.97;;;4.43;;
26486;SDS011;14425;56.136;40.360;2022-09-17T01:52:58;6.30;;;4.85;;
26486;SDS011;14425;56.136;40.360;2022-09-17T01:55:25;6.70;;;5.70;;
26486;SDS011;14425;56.136;40.360;2022-09-17T01:57:53;5.80;;;4.70;;
26486;SDS011;14425;56.136;40.360;2022-09-17T02:00:20;5.45;;;3.85;;
26486;SDS011;14425;56.136;40.360;2022-09-17T02:05:28;7.00;;;4.55;;
26486;SDS011;14425;56.136;40.360;2022-09-17T02:07:56;11.05;;;5.03;;
26486;SDS011;14425;56.136;40.360;2022-09-17T02:10:30;6.55;;;5.05;;
26486;SDS011;14425;56.136;40.360;2022-09-17T02:12:57;10.98;;;7.72;;
26486;SDS011;14425;56.136;40.360;2022-09-17T02:15:25;10.07;;;6.72;;
26486;SDS011;14425;56.136;40.360;2022-09-17T02:18:01;7.25;;;5.55;;
26486;SDS011;14425;56.136;40.360;2022-09-17T02:20:42;10.32;;;6.07;;
26486;SDS011;14425;56.136;40.360;2022-09-17T02:23:14;7.95;;;5.45;;
26486;SDS011;14425;56.136;40.360;2022-09-17T02:25:41;9.15;;;7.90;;
26486;SDS011;14425;56.136;40.360;2022-09-17T02:30:39;9.20;;;6.00;;
26486;SDS011;14425;56.136;40.360;2022-09-17T02:33:05;7.15;;;5.30;;
26486;SDS011;14425;56.136;40.360;2022-09-17T02:35:31;9.00;;;6.45;;
26486;SDS011;14425;56.136;40.360;2022-09-17T02:37:57;10.52;;;6.00;;
26486;SDS011;14425;56.136;40.360;2022-09-17T02:40:23;10.23;;;6.30;;
26486;SDS011;14425;56.136;40.360;2022-09-17T02:56:03;10.10;;;7.18;;
26486;SDS011;14425;56.136;40.360;2022-09-17T03:00:59;9.00;;;6.53;;
26486;SDS011;14425;56.136;40.360;2022-09-17T03:03:45;8.73;;;6.70;;
26486;SDS011;14425;56.136;40.360;2022-09-17T03:06:14;7.65;;;5.55;;
26486;SDS011;14425;56.136;40.360;2022-09-17T03:08:40;6.45;;;5.13;;
26486;SDS011;14425;56.136;40.360;2022-09-17T03:11:06;11.65;;;8.38;;
26486;SDS011;14425;56.136;40.360;2022-09-17T03:13:33;5.57;;;4.60;;
26486;SDS011;14425;56.136;40.360;2022-09-17T03:15:59;10.25;;;7.50;;
26486;SDS011;14425;56.136;40.360;2022-09-17T03:18:25;10.65;;;8.18;;
26486;SDS011;14425;56.136;40.360;2022-09-17T03:20:50;9.57;;;5.78;;
26486;SDS011;14425;56.136;40.360;2022-09-17T03:23:15;7.88;;;5.57;;
26486;SDS011;14425;56.136;40.360;2022-09-17T03:25:41;8.18;;;5.50;;
26486;SDS011;14425;56.136;40.360;2022-09-17T03:28:06;8.02;;;6.53;;
26486;SDS011;14425;56.136;40.360;2022-09-17T03:30:31;8.50;;;6.38;;
26486;SDS011;14425;56.136;40.360;2022-09-17T03:32:57;9.77;;;5.72;;
26486;SDS011;14425;56.136;40.360;2022-09-17T03:35:22;11.13;;;6.95;;
26486;SDS011;14425;56.136;40.360;2022-09-17T03:37:47;6.82;;;5.00;;
26486;SDS011;14425;56.136;40.360;2022-09-17T03:40:13;8.10;;;6.38;;
26486;SDS011;14425;56.136;40.360;2022-09-17T03:42:38;7.95;;;5.53;;
26486;SDS011;14425;56.136;40.360;2022-09-17T03:45:03;7.97;;;6.57;;
26486;SDS011;14425;56.136;40.360;2022-09-17T03:47:29;8.45;;;6.47;;
26486;SDS011;14425;56.136;40.360;2022-09-17T03:49:54;7.70;;;5.63;;
26486;SDS011;14425;56.136;40.360;2022-09-17T03:52:20;6.47;;;5.05;;
26486;SDS011;14425;56.136;40.360;2022-09-17T03:54:45;7.95;;;5.53;;
26486;SDS011;14425;56.136;40.360;2022-09-17T03:57:11;10.85;;;7.80;;
26486;SDS011;14425;56.136;40.360;2022-09-17T03:59:36;12.23;;;7.63;;
26486;SDS011;14425;56.136;40.360;2022-09-17T04:02:01;7.70;;;5.47;;
26486;SDS011;14425;56.136;40.360;2022-09-17T04:04:27;8.98;;;6.18;;
26486;SDS011;14425;56.136;40.360;2022-09-17T04:06:52;7.90;;;4.97;;
26486;SDS011;14425;56.136;40.360;2022-09-17T04:09:18;7.90;;;5.90;;
26486;SDS011;14425;56.136;40.360;2022-09-17T04:11:44;10.40;;;7.78;;
26486;SDS011;14425;56.136;40.360;2022-09-17T04:14:09;8.53;;;6.83;;
26486;SDS011;14425;56.136;40.360;2022-09-17T04:16:34;10.77;;;7.30;;
26486;SDS011;14425;56.136;40.360;2022-09-17T04:18:59;6.47;;;5.53;;
26486;SDS011;14425;56.136;40.360;2022-09-17T04:21:25;9.38;;;6.47;;
26486;SDS011;14425;56.136;40.360;2022-09-17T04:23:50;6.20;;;4.85;;
26486;SDS011;14425;56.136;40.360;2022-09-17T04:26:15;6.38;;;4.90;;
26486;SDS011;14425;56.136;40.360;2022-09-17T04:28:41;8.27;;;6.68;;
26486;SDS011;14425;56.136;40.360;2022-09-17T04:31:06;9.93;;;8.25;;
26486;SDS011;14425;56.136;40.360;2022-09-17T04:33:31;9.57;;;7.05;;
26486;SDS011;14425;56.136;40.360;2022-09-17T04:35:57;7.00;;;5.15;;
26486;SDS011;14425;56.136;40.360;2022-09-17T04:38:22;11.15;;;7.63;;
26486;SDS011;14425;56.136;40.360;2022-09-17T04:40:48;13.13;;;7.95;;
26486;SDS011;14425;56.136;40.360;2022-09-17T04:43:14;6.57;;;4.82;;
26486;SDS011;14425;56.136;40.360;2022-09-17T04:45:39;7.88;;;5.90;;
26486;SDS011;14425;56.136;40.360;2022-09-17T04:48:05;14.13;;;8.52;;
26486;SDS011;14425;56.136;40.360;2022-09-17T04:50:30;7.82;;;5.35;;
26486;SDS011;14425;56.136;40.360;2022-09-17T04:52:55;5.70;;;4.53;;
26486;SDS011;14425;56.136;40.360;2022-09-17T04:55:21;5.80;;;4.35;;
26486;SDS011;14425;56.136;40.360;2022-09-17T04:57:47;7.43;;;4.80;;
26486;SDS011;14425;56.136;40.360;2022-09-17T05:00:13;8.43;;;6.30;;
26486;SDS011;14425;56.136;40.360;2022-09-17T05:02:39;11.18;;;7.95;;
26486;SDS011;14425;56.136;40.360;2022-09-17T05:05:04;10.80;;;6.40;;
26486;SDS011;14425;56.136;40.360;2022-09-17T05:07:30;9.30;;;6.05;;
26486;SDS011;14425;56.136;40.360;2022-09-17T05:09:55;11.82;;;7.78;;
26486;SDS011;14425;56.136;40.360;2022-09-17T05:12:20;10.77;;;8.18;;
26486;SDS011;14425;56.136;40.360;2022-09-17T05:14:45;12.07;;;7.03;;
26486;SDS011;14425;56.136;40.360;2022-09-17T05:17:11;12.98;;;6.15;;
26486;SDS011;14425;56.136;40.360;2022-09-17T05:19:36;10.20;;;8.20;;
26486;SDS011;14425;56.136;40.360;2022-09-17T05:22:01;13.73;;;8.60;;
26486;SDS011;14425;56.136;40.360;2022-09-17T05:24:27;11.65;;;8.48;;
26486;SDS011;14425;56.136;40.360;2022-09-17T05:26:52;12.32;;;7.45;;
26486;SDS011;14425;56.136;40.360;2022-09-17T05:29:18;11.77;;;7.22;;
26486;SDS011;14425;56.136;40.360;2022-09-17T05:31:43;9.93;;;7.97;;
26486;SDS011;14425;56.136;40.360;2022-09-17T05:34:08;8.27;;;5.90;;
26486;SDS011;14425;56.136;40.360;2022-09-17T05:36:34;11.35;;;7.35;;
26486;SDS011;14425;56.136;40.360;2022-09-17T05:38:59;9.00;;;7.05;;
26486;SDS011;14425;56.136;40.360;2022-09-17T05:41:24;13.35;;;7.50;;
26486;SDS011;14425;56.136;40.360;2022-09-17T05:43:50;9.68;;;6.95;;
26486;SDS011;14425;56.136;40.360;2022-09-17T05:46:15;10.43;;;7.32;;
26486;SDS011;14425;56.136;40.360;2022-09-17T05:48:40;7.65;;;5.80;;
26486;SDS011;14425;56.136;40.360;2022-09-17T05:51:05;14.15;;;7.80;;
26486;SDS011;14425;56.136;40.360;2022-09-17T05:53:31;15.80;;;8.10;;
26486;SDS011;14425;56.136;40.360;2022-09-17T05:55:59;9.30;;;6.15;;
26486;SDS011;14425;56.136;40.360;2022-09-17T05:58:25;11.00;;;6.60;;
26486;SDS011;14425;56.136;40.360;2022-09-17T06:00:51;5.10;;;4.18;;
26486;SDS011;14425;56.136;40.360;2022-09-17T06:03:17;6.88;;;5.15;;
26486;SDS011;14425;56.136;40.360;2022-09-17T06:05:43;13.18;;;8.13;;
26486;SDS011;14425;56.136;40.360;2022-09-17T06:08:16;14.20;;;8.95;;
26486;SDS011;14425;56.136;40.360;2022-09-17T06:10:41;10.48;;;5.90;;
26486;SDS011;14425;56.136;40.360;2022-09-17T06:13:06;8.90;;;5.72;;
26486;SDS011;14425;56.136;40.360;2022-09-17T06:15:32;10.25;;;5.88;;
26486;SDS011;14425;56.136;40.360;2022-09-17T06:17:58;7.32;;;5.30;;
26486;SDS011;14425;56.136;40.360;2022-09-17T06:20:23;8.75;;;5.65;;
26486;SDS011;14425;56.136;40.360;2022-09-17T06:22:48;8.05;;;5.65;;
26486;SDS011;14425;56.136;40.360;2022-09-17T06:25:19;9.40;;;6.30;;
26486;SDS011;14425;56.136;40.360;2022-09-17T06:27:44;10.27;;;6.07;;
26486;SDS011;14425;56.136;40.360;2022-09-17T06:30:09;8.85;;;6.32;;
26486;SDS011;14425;56.136;40.360;2022-09-17T06:32:35;11.90;;;6.72;;
26486;SDS011;14425;56.136;40.360;2022-09-17T06:35:01;8.23;;;4.93;;
26486;SDS011;14425;56.136;40.360;2022-09-17T06:37:28;9.00;;;5.72;;
26486;SDS011;14425;56.136;40.360;2022-09-17T06:39:54;9.20;;;5.60;;
26486;SDS011;14425;56.136;40.360;2022-09-17T06:42:20;11.65;;;6.18;;
26486;SDS011;14425;56.136;40.360;2022-09-17T06:44:45;11.77;;;6.45;;
26486;SDS011;14425;56.136;40.360;2022-09-17T06:47:10;10.40;;;5.40;;
26486;SDS011;14425;56.136;40.360;2022-09-17T06:49:35;10.53;;;5.90;;
26486;SDS011;14425;56.136;40.360;2022-09-17T06:52:01;8.85;;;5.75;;
26486;SDS011;14425;56.136;40.360;2022-09-17T06:54:26;10.90;;;5.25;;
26486;SDS011;14425;56.136;40.360;2022-09-17T06:56:52;9.57;;;6.13;;
26486;SDS011;14425;56.136;40.360;2022-09-17T06:59:17;9.25;;;6.72;;
26486;SDS011;14425;56.136;40.360;2022-09-17T07:01:43;8.13;;;6.10;;
26486;SDS011;14425;56.136;40.360;2022-09-17T07:04:08;5.55;;;4.68;;
26486;SDS011;14425;56.136;40.360;2022-09-17T07:06:33;8.38;;;5.30;;
26486;SDS011;14425;56.136;40.360;2022-09-17T07:08:59;8.23;;;6.22;;
26486;SDS011;14425;56.136;40.360;2022-09-17T07:11:24;10.38;;;6.22;;
26486;SDS011;14425;56.136;40.360;2022-09-17T07:13:49;7.55;;;5.25;;
26486;SDS011;14425;56.136;40.360;2022-09-17T07:16:15;8.02;;;6.10;;
26486;SDS011;14425;56.136;40.360;2022-09-17T07:18:40;8.75;;;6.18;;
26486;SDS011;14425;56.136;40.360;2022-09-17T07:21:06;7.90;;;5.47;;
26486;SDS011;14425;56.136;40.360;2022-09-17T07:23:35;8.30;;;6.03;;
26486;SDS011;14425;56.136;40.360;2022-09-17T07:26:11;8.00;;;5.13;;
26486;SDS011;14425;56.136;40.360;2022-09-17T07:28:37;7.47;;;5.35;;
26486;SDS011;14425;56.136;40.360;2022-09-17T07:31:04;8.45;;;5.38;;
26486;SDS011;14425;56.136;40.360;2022-09-17T07:33:29;10.45;;;5.20;;
26486;SDS011;14425;56.136;40.360;2022-09-17T07:35:59;8.23;;;5.00;;
26486;SDS011;14425;56.136;40.360;2022-09-17T07:38:26;8.18;;;5.32;;
26486;SDS011;14425;56.136;40.360;2022-09-17T07:40:56;5.15;;;4.22;;
26486;SDS011;14425;56.136;40.360;2022-09-17T07:43:22;5.90;;;4.32;;
26486;SDS011;14425;56.136;40.360;2022-09-17T07:45:48;6.05;;;4.45;;
26486;SDS011;14425;56.136;40.360;2022-09-17T07:48:13;10.57;;;4.23;;
26486;SDS011;14425;56.136;40.360;2022-09-17T07:50:38;9.55;;;4.65;;
26486;SDS011;14425;56.136;40.360;2022-09-17T07:53:04;7.88;;;3.00;;
26486;SDS011;14425;56.136;40.360;2022-09-17T07:55:29;4.97;;;3.67;;
26486;SDS011;14425;56.136;40.360;2022-09-17T07:57:54;5.28;;;3.95;;
26486;SDS011;14425;56.136;40.360;2022-09-17T08:00:20;7.10;;;3.57;;
26486;SDS011;14425;56.136;40.360;2022-09-17T08:02:51;4.47;;;2.80;;
26486;SDS011;14425;56.136;40.360;2022-09-17T08:07:41;4.73;;;3.23;;
26486;SDS011;14425;56.136;40.360;2022-09-17T08:10:07;4.25;;;3.42;;
26486;SDS011;14425;56.136;40.360;2022-09-17T08:12:32;3.92;;;2.72;;
26486;SDS011;14425;56.136;40.360;2022-09-17T08:14:57;3.17;;;2.80;;
26486;SDS011;14425;56.136;40.360;2022-09-17T08:17:23;4.40;;;2.67;;
26486;SDS011;14425;56.136;40.360;2022-09-17T08:19:48;8.30;;;3.60;;
26486;SDS011;14425;56.136;40.360;2022-09-17T08:22:13;6.63;;;3.53;;
26486;SDS011;14425;56.136;40.360;2022-09-17T08:24:39;4.53;;;3.20;;
26486;SDS011;14425;56.136;40.360;2022-09-17T08:27:06;4.28;;;2.90;;
26486;SDS011;14425;56.136;40.360;2022-09-17T08:29:32;4.13;;;2.92;;
26486;SDS011;14425;56.136;40.360;2022-09-17T08:31:57;3.50;;;2.38;;
26486;SDS011;14425;56.136;40.360;2022-09-17T08:34:22;5.70;;;2.47;;
26486;SDS011;14425;56.136;40.360;2022-09-17T08:36:48;6.00;;;3.22;;
26486;SDS011;14425;56.136;40.360;2022-09-17T08:39:16;4.93;;;2.75;;
26486;SDS011;14425;56.136;40.360;2022-09-17T08:41:45;6.13;;;2.80;;
26486;SDS011;14425;56.136;40.360;2022-09-17T08:46:44;4.07;;;2.67;;
26486;SDS011;14425;56.136;40.360;2022-09-17T08:52:06;5.38;;;2.33;;
26486;SDS011;14425;56.136;40.360;2022-09-17T09:07:15;5.40;;;2.88;;
26486;SDS011;14425;56.136;40.360;2022-09-17T09:09:48;7.55;;;3.45;;
26486;SDS011;14425;56.136;40.360;2022-09-17T09:12:21;7.40;;;3.28;;
26486;SDS011;14425;56.136;40.360;2022-09-17T09:14:50;11.18;;;3.97;;
26486;SDS011;14425;56.136;40.360;2022-09-17T09:17:17;5.22;;;2.78;;
26486;SDS011;14425;56.136;40.360;2022-09-17T09:19:46;6.15;;;3.60;;
26486;SDS011;14425;56.136;40.360;2022-09-17T09:22:14;3.83;;;2.70;;
26486;SDS011;14425;56.136;40.360;2022-09-17T09:25:26;8.50;;;3.13;;
26486;SDS011;14425;56.136;40.360;2022-09-17T09:27:34;7.78;;;2.30;;
26486;SDS011;14425;56.136;40.360;2022-09-17T09:35:15;11.32;;;3.63;;
26486;SDS011;14425;56.136;40.360;2022-09-17T09:37:43;6.85;;;2.78;;
26486;SDS011;14425;56.136;40.360;2022-09-17T09:42:54;5.53;;;2.47;;
26486;SDS011;14425;56.136;40.360;2022-09-17T09:45:33;7.45;;;2.63;;
26486;SDS011;14425;56.136;40.360;2022-09-17T09:58:04;4.68;;;1.92;;
26486;SDS011;14425;56.136;40.360;2022-09-17T10:00:35;4.13;;;1.75;;
26486;SDS011;14425;56.136;40.360;2022-09-17T10:03:03;6.63;;;2.30;;
26486;SDS011;14425;56.136;40.360;2022-09-17T10:05:30;5.22;;;2.15;;
26486;SDS011;14425;56.136;40.360;2022-09-17T10:07:56;8.23;;;2.13;;
26486;SDS011;14425;56.136;40.360;2022-09-17T10:10:21;3.30;;;2.27;;
26486;SDS011;14425;56.136;40.360;2022-09-17T10:12:46;3.80;;;2.28;;
26486;SDS011;14425;56.136;40.360;2022-09-17T10:15:22;8.40;;;3.97;;
26486;SDS011;14425;56.136;40.360;2022-09-17T10:17:48;4.65;;;2.80;;
26486;SDS011;14425;56.136;40.360;2022-09-17T10:20:15;4.68;;;2.50;;
26486;SDS011;14425;56.136;40.360;2022-09-17T10:22:41;2.88;;;1.75;;
26486;SDS011;14425;56.136;40.360;2022-09-17T10:25:50;3.97;;;2.20;;
26486;SDS011;14425;56.136;40.360;2022-09-17T10:28:01;4.57;;;2.38;;
26486;SDS011;14425;56.136;40.360;2022-09-17T10:30:27;7.85;;;2.72;;
26486;SDS011;14425;56.136;40.360;2022-09-17T10:35:37;5.53;;;2.92;;
26486;SDS011;14425;56.136;40.360;2022-09-17T10:38:02;8.77;;;3.30;;
26486;SDS011;14425;56.136;40.360;2022-09-17T10:40:29;5.30;;;2.65;;
26486;SDS011;14425;56.136;40.360;2022-09-17T10:45:36;3.80;;;2.50;;
26486;SDS011;14425;56.136;40.360;2022-09-17T10:48:03;4.03;;;2.28;;
26486;SDS011;14425;56.136;40.360;2022-09-17T10:50:29;2.42;;;1.77;;
26486;SDS011;14425;56.136;40.360;2022-09-17T10:52:56;6.72;;;2.80;;
26486;SDS011;14425;56.136;40.360;2022-09-17T10:55:32;2.80;;;1.48;;
26486;SDS011;14425;56.136;40.360;2022-09-17T11:00:27;5.05;;;1.70;;
26486;SDS011;14425;56.136;40.360;2022-09-17T11:13:32;2.25;;;1.45;;
26486;SDS011;14425;56.136;40.360;2022-09-17T11:18:42;3.28;;;1.27;;
26486;SDS011;14425;56.136;40.360;2022-09-17T11:26:29;3.92;;;1.23;;
26486;SDS011;14425;56.136;40.360;2022-09-17T11:39:27;2.17;;;1.05;;
26486;SDS011;14425;56.136;40.360;2022-09-17T11:41:55;2.45;;;0.80;;
26486;SDS011;14425;56.136;40.360;2022-09-17T11:46:59;5.72;;;2.97;;
26486;SDS011;14425;56.136;40.360;2022-09-17T11:49:49;5.18;;;1.75;;
26486;SDS011;14425;56.136;40.360;2022-09-17T11:55:19;4.13;;;1.75;;
26486;SDS011;14425;56.136;40.360;2022-09-17T11:57:46;4.85;;;1.58;;
26486;SDS011;14425;56.136;40.360;2022-09-17T12:05:04;4.47;;;1.40;;
26486;SDS011;14425;56.136;40.360;2022-09-17T12:08:15;3.78;;;1.58;;
26486;SDS011;14425;56.136;40.360;2022-09-17T12:10:28;4.97;;;2.40;;
26486;SDS011;14425;56.136;40.360;2022-09-17T12:13:12;5.43;;;2.03;;
26486;SDS011;14425;56.136;40.360;2022-09-17T12:15:38;4.80;;;1.83;;
26486;SDS011;14425;56.136;40.360;2022-09-17T12:20:45;2.38;;;1.52;;
26486;SDS011;14425;56.136;40.360;2022-09-17T12:23:13;4.82;;;1.25;;
26486;SDS011;14425;56.136;40.360;2022-09-17T12:25:43;3.63;;;1.73;;
26486;SDS011;14425;56.136;40.360;2022-09-17T12:28:23;3.42;;;1.50;;
26486;SDS011;14425;56.136;40.360;2022-09-17T12:31:13;4.60;;;2.30;;
26486;SDS011;14425;56.136;40.360;2022-09-17T12:33:41;3.97;;;2.08;;
26486;SDS011;14425;56.136;40.360;2022-09-17T12:36:18;2.25;;;1.85;;
26486;SDS011;14425;56.136;40.360;2022-09-17T12:41:51;3.58;;;1.60;;
26486;SDS011;14425;56.136;40.360;2022-09-17T12:59:19;5.07;;;1.90;;
26486;SDS011;14425;56.136;40.360;2022-09-17T13:01:49;4.32;;;1.60;;
26486;SDS011;14425;56.136;40.360;2022-09-17T13:12:12;6.95;;;1.95;;
26486;SDS011;14425;56.136;40.360;2022-09-17T13:17:23;5.15;;;1.70;;
26486;SDS011;14425;56.136;40.360;2022-09-17T13:19:58;3.63;;;1.95;;
26486;SDS011;14425;56.136;40.360;2022-09-17T13:22:28;6.45;;;2.40;;
26486;SDS011;14425;56.136;40.360;2022-09-17T13:25:06;5.05;;;2.33;;
26486;SDS011;14425;56.136;40.360;2022-09-17T13:27:32;3.25;;;1.70;;
26486;SDS011;14425;56.136;40.360;2022-09-17T13:29:59;3.63;;;2.05;;
26486;SDS011;14425;56.136;40.360;2022-09-17T13:40:03;5.30;;;1.73;;
26486;SDS011;14425;56.136;40.360;2022-09-17T13:42:44;3.00;;;1.30;;
26486;SDS011;14425;56.136;40.360;2022-09-17T13:45:11;5.55;;;1.65;;
26486;SDS011;14425;56.136;40.360;2022-09-17T13:47:50;2.83;;;1.63;;
26486;SDS011;14425;56.136;40.360;2022-09-17T13:52:51;4.78;;;2.85;;
26486;SDS011;14425;56.136;40.360;2022-09-17T13:55:34;3.50;;;2.33;;
26486;SDS011;14425;56.136;40.360;2022-09-17T13:58:01;7.43;;;3.28;;
26486;SDS011;14425;56.136;40.360;2022-09-17T14:05:55;4.22;;;1.90;;
26486;SDS011;14425;56.136;40.360;2022-09-17T14:08:28;4.50;;;2.60;;
26486;SDS011;14425;56.136;40.360;2022-09-17T14:10:56;6.20;;;2.45;;
26486;SDS011;14425;56.136;40.360;2022-09-17T14:13:26;3.55;;;2.30;;
26486;SDS011;14425;56.136;40.360;2022-09-17T14:15:56;4.13;;;2.10;;
26486;SDS011;14425;56.136;40.360;2022-09-17T14:20:54;4.13;;;2.40;;
26486;SDS011;14425;56.136;40.360;2022-09-17T14:23:32;4.57;;;2.45;;
26486;SDS011;14425;56.136;40.360;2022-09-17T14:25:58;6.22;;;2.45;;
26486;SDS011;14425;56.136;40.360;2022-09-17T14:33:55;2.78;;;1.90;;
26486;SDS011;14425;56.136;40.360;2022-09-17T14:36:51;5.85;;;2.75;;
26486;SDS011;14425;56.136;40.360;2022-09-17T14:39:29;4.25;;;3.17;;
26486;SDS011;14425;56.136;40.360;2022-09-17T14:45:36;8.07;;;2.78;;
26486;SDS011;14425;56.136;40.360;2022-09-17T14:50:48;8.87;;;2.53;;
26486;SDS011;14425;56.136;40.360;2022-09-17T14:53:15;3.80;;;2.30;;
26486;SDS011;14425;56.136;40.360;2022-09-17T14:55:50;5.05;;;2.85;;
26486;SDS011;14425;56.136;40.360;2022-09-17T14:58:23;8.35;;;2.80;;
26486;SDS011;14425;56.136;40.360;2022-09-17T15:00:50;5.40;;;3.10;;
26486;SDS011;14425;56.136;40.360;2022-09-17T15:03:20;8.63;;;3.67;;
26486;SDS011;14425;56.136;40.360;2022-09-17T15:05:46;7.38;;;4.78;;
26486;SDS011;14425;56.136;40.360;2022-09-17T15:08:24;9.48;;;4.22;;
26486;SDS011;14425;56.136;40.360;2022-09-17T15:10:54;6.20;;;3.58;;
26486;SDS011;14425;56.136;40.360;2022-09-17T15:13:24;5.72;;;3.60;;
26486;SDS011;14425;56.136;40.360;2022-09-17T15:16:13;3.30;;;2.60;;
26486;SDS011;14425;56.136;40.360;2022-09-17T15:18:46;6.00;;;2.47;;
26486;SDS011;14425;56.136;40.360;2022-09-17T15:23:43;5.25;;;2.47;;
26486;SDS011;14425;56.136;40.360;2022-09-17T15:26:09;6.55;;;1.40;;
26486;SDS011;14425;56.136;40.360;2022-09-17T15:28:37;3.33;;;2.05;;
26486;SDS011;14425;56.136;40.360;2022-09-17T15:31:04;2.15;;;1.27;;
26486;SDS011;14425;56.136;40.360;2022-09-17T15:33:30;3.03;;;1.52;;
26486;SDS011;14425;56.136;40.360;2022-09-17T15:36:00;4.05;;;1.95;;
26486;SDS011;14425;56.136;40.360;2022-09-17T15:38:26;3.88;;;1.48;;
26486;SDS011;14425;56.136;40.360;2022-09-17T15:40:52;2.80;;;1.48;;
26486;SDS011;14425;56.136;40.360;2022-09-17T15:43:28;4.57;;;1.40;;
26486;SDS011;14425;56.136;40.360;2022-09-17T15:45:54;5.28;;;1.40;;
26486;SDS011;14425;56.136;40.360;2022-09-17T15:50:52;7.00;;;1.42;;
26486;SDS011;14425;56.136;40.360;2022-09-17T15:53:22;1.88;;;1.10;;
26486;SDS011;14425;56.136;40.360;2022-09-17T15:56:07;2.50;;;1.10;;
26486;SDS011;14425;56.136;40.360;2022-09-17T16:06:09;5.72;;;1.40;;
26486;SDS011;14425;56.136;40.360;2022-09-17T16:11:23;2.90;;;1.42;;
26486;SDS011;14425;56.136;40.360;2022-09-17T16:13:49;2.83;;;1.08;;
26486;SDS011;14425;56.136;40.360;2022-09-17T16:16:18;4.88;;;1.27;;
26486;SDS011;14425;56.136;40.360;2022-09-17T16:18:44;3.90;;;1.83;;
26486;SDS011;14425;56.136;40.360;2022-09-17T16:21:10;7.28;;;2.15;;
26486;SDS011;14425;56.136;40.360;2022-09-17T16:23:36;2.35;;;1.10;;
26486;SDS011;14425;56.136;40.360;2022-09-17T16:26:02;1.60;;;0.98;;
26486;SDS011;14425;56.136;40.360;2022-09-17T16:28:27;1.67;;;1.25;;
26486;SDS011;14425;56.136;40.360;2022-09-17T16:30:54;4.00;;;1.13;;
26486;SDS011;14425;56.136;40.360;2022-09-17T16:33:20;6.07;;;1.50;;
26486;SDS011;14425;56.136;40.360;2022-09-17T16:35:45;1.80;;;1.10;;
26486;SDS011;14425;56.136;40.360;2022-09-17T16:38:10;4.28;;;1.33;;
26486;SDS011;14425;56.136;40.360;2022-09-17T16:40:44;4.90;;;2.00;;
26486;SDS011;14425;56.136;40.360;2022-09-17T16:43:11;3.10;;;1.30;;
26486;SDS011;14425;56.136;40.360;2022-09-17T16:45:39;1.33;;;1.00;;
26486;SDS011;14425;56.136;40.360;2022-09-17T16:48:04;1.92;;;1.20;;
26486;SDS011;14425;56.136;40.360;2022-09-17T16:50:31;2.28;;;1.10;;
26486;SDS011;14425;56.136;40.360;2022-09-17T16:52:56;4.15;;;1.17;;
26486;SDS011;14425;56.136;40.360;2022-09-17T16:55:22;2.28;;;0.93;;
26486;SDS011;14425;56.136;40.360;2022-09-17T16:57:47;2.22;;;1.40;;
26486;SDS011;14425;56.136;40.360;2022-09-17T17:00:14;3.05;;;1.10;;
26486;SDS011;14425;56.136;40.360;2022-09-17T17:02:41;2.05;;;1.55;;
26486;SDS011;14425;56.136;40.360;2022-09-17T17:05:07;2.60;;;1.35;;
26486;SDS011;14425;56.136;40.360;2022-09-17T17:07:34;2.10;;;1.33;;
26486;SDS011;14425;56.136;40.360;2022-09-17T17:10:00;3.30;;;1.10;;
26486;SDS011;14425;56.136;40.360;2022-09-17T17:12:26;3.22;;;1.23;;
26486;SDS011;14425;56.136;40.360;2022-09-17T17:14:51;2.50;;;1.05;;
26486;SDS011;14425;56.136;40.360;2022-09-17T17:17:18;6.93;;;2.80;;
26486;SDS011;14425;56.136;40.360;2022-09-17T17:19:43;2.38;;;0.90;;
26486;SDS011;14425;56.136;40.360;2022-09-17T17:22:11;3.97;;;1.70;;
26486;SDS011;14425;56.136;40.360;2022-09-17T17:24:36;3.85;;;1.55;;
26486;SDS011;14425;56.136;40.360;2022-09-17T17:27:01;4.43;;;1.00;;
26486;SDS011;14425;56.136;40.360;2022-09-17T17:29:28;1.60;;;1.20;;
26486;SDS011;14425;56.136;40.360;2022-09-17T17:31:53;6.97;;;1.40;;
26486;SDS011;14425;56.136;40.360;2022-09-17T17:34:18;2.25;;;1.02;;
26486;SDS011;14425;56.136;40.360;2022-09-17T17:36:46;1.42;;;0.85;;
26486;SDS011;14425;56.136;40.360;2022-09-17T17:39:12;1.67;;;1.10;;
26486;SDS011;14425;56.136;40.360;2022-09-17T17:41:37;1.85;;;0.80;;
26486;SDS011;14425;56.136;40.360;2022-09-17T17:44:02;1.88;;;1.00;;
26486;SDS011;14425;56.136;40.360;2022-09-17T17:46:28;2.40;;;0.98;;
26486;SDS011;14425;56.136;40.360;2022-09-17T17:48:53;3.97;;;1.65;;
26486;SDS011;14425;56.136;40.360;2022-09-17T17:51:19;4.53;;;1.20;;
26486;SDS011;14425;56.136;40.360;2022-09-17T17:53:44;3.38;;;1.23;;
26486;SDS011;14425;56.136;40.360;2022-09-17T17:56:11;2.67;;;1.10;;
26486;SDS011;14425;56.136;40.360;2022-09-17T17:58:36;4.43;;;1.30;;
26486;SDS011;14425;56.136;40.360;2022-09-17T18:01:09;3.22;;;1.35;;
26486;SDS011;14425;56.136;40.360;2022-09-17T18:03:35;1.80;;;1.48;;